Минеральные Воды, Russia

14 02, 2016 06:43 MSK (GMT +0300)
Mineralnyye Vody | | Change Station
CLOSE
Current Station
Аэропорт
Location: Mineral'Nye Vody,
Высота над уровнем моря: 1030 ft
Ближайшие Погодные Станции

В.н.у.м. 1030 ft 44.23 °N, 43.08 °E | Updated 13 minutes ago

Light Freezing Fog
Небольшой Переохлажденный Туман
30 °F
Ощущается Как 21 °F
С
11
Ветер переменчевый Ветер от Ю-В

Сегодня
Высокий -- | Низкий -- °F
--% Вероятн. осадков
Вчера
Высокий -- | Низкий -- °F
Precip. -- дюймов
Давление 29.95 дюймов
Видимость 0.5 милиь
Облачность
Температура с учетом ветра 21 °F
Точка Росы 30 °F
Влажность воздуха 100%
Дождь 0.00 дюймов
Глубина снега Нет в наличии.
7:09 AM 5:34 PM
Растущая луна, 37% visible
METAR URMM 140330Z 13005MPS 0800 R12/P2000U FZFG VV001 M01/M01 Q1014 R12/000070 NOSIG RMK QBB050 MT OBSC QFE732/0977
Давление 29.95 дюймов
Видимость 0.5 милиь
Облачность
Температура с учетом ветра 21 °F
Точка Росы 30 °F
Влажность воздуха 100%
Дождь 0.00 дюймов
Глубина снега Нет в наличии.
7:09 AM 5:34 PM
Растущая луна, 37% visible
METAR URMM 140330Z 13005MPS 0800 R12/P2000U FZFG VV001 M01/M01 Q1014 R12/000070 NOSIG RMK QBB050 MT OBSC QFE732/0977

10-Day Weather Forecast

Almanac

Астрономические явления

Feb. 14, 2016 Восход Закат
Настоящее время
Гражданские сумерки
Навигационные сумерки
Астрономические сумерки
Луна
Длительность светового времени
Продолжительность Дня
Tomorrow will be .
, % of the Moon is Illuminated

Сегодняшние Экстремальные Показания

Country Highs Country Lows

Community

WunderPhotos

Upload Photos

1,892,738 фотографии загружены!

WunderBlog® & News

Nearby

Качество воздуха

  Качество воздуха Индекс AQ Загрязнитель
Not available.

Глубина Снега

Station Depth Высота над уровнем моря

Сейсмическая активность

Город Distance Mag. Time & Date
Minimum magnitude displayed is 2.5.

Температура Прибрежных Вод

Место Температура

Stations

Ближайшие Погодные Станции

Местонахождение Темп. Температура с учетом ветра Точка Росы Влажность воздуха Ветер Precip. В.н.у.м. Последняя сводка Тип